createdAt,value
2023-12-30T00:01:32.941Z,100295.20
2023-12-30T00:04:01.131Z,100298.40
2023-12-30T00:06:29.557Z,100291.40
2023-12-30T00:08:57.622Z,100290.60
2023-12-30T00:11:25.703Z,100287.60
2023-12-30T00:13:53.721Z,100284.80
2023-12-30T00:16:21.769Z,100284.40
2023-12-30T00:18:50.033Z,100285.40
2023-12-30T00:21:22.131Z,100282.00
2023-12-30T00:23:51.204Z,100281.40
2023-12-30T00:26:23.339Z,100283.80
2023-12-30T00:29:01.431Z,100280.80
2023-12-30T00:31:31.054Z,100282.00
2023-12-30T00:34:01.653Z,100282.60
2023-12-30T00:36:30.312Z,100277.60
2023-12-30T00:38:58.363Z,100275.00
2023-12-30T00:41:27.916Z,100279.60
2023-12-30T00:43:55.998Z,100273.00
2023-12-30T00:46:24.113Z,100278.40
2023-12-30T00:48:57.246Z,100278.40
2023-12-30T00:51:27.462Z,100278.60
2023-12-30T00:53:55.554Z,100284.00
2023-12-30T00:56:23.709Z,100282.80
2023-12-30T00:58:51.793Z,100283.20
2023-12-30T01:01:19.910Z,100278.60
2023-12-30T01:03:48.378Z,100277.40
2023-12-30T01:06:16.561Z,100280.00
2023-12-30T01:08:48.240Z,100279.00
2023-12-30T01:11:16.393Z,100273.80
2023-12-30T01:13:44.596Z,100272.20
2023-12-30T01:16:12.932Z,100273.00
2023-12-30T01:18:41.647Z,100279.20
2023-12-30T01:21:09.796Z,100279.40
2023-12-30T01:23:37.912Z,100281.20
2023-12-30T01:26:06.104Z,100273.80
2023-12-30T01:28:35.474Z,100274.00
2023-12-30T01:31:04.299Z,100274.60
2023-12-30T01:33:32.586Z,100277.00
2023-12-30T01:36:01.379Z,100271.20
2023-12-30T01:38:29.475Z,100269.80
2023-12-30T01:40:58.223Z,100262.00
2023-12-30T01:43:28.443Z,100259.60
2023-12-30T01:46:04.771Z,100259.60
2023-12-30T01:48:33.636Z,100256.80
2023-12-30T01:51:04.080Z,100264.20
2023-12-30T01:53:36.639Z,100273.40
2023-12-30T01:56:05.425Z,100269.20
2023-12-30T01:58:35.640Z,100265.20
2023-12-30T02:01:05.183Z,100261.40
2023-12-30T02:03:35.060Z,100259.40
2023-12-30T02:06:03.169Z,100258.00
2023-12-30T02:08:31.751Z,100258.40
2023-12-30T02:11:04.274Z,100262.80
2023-12-30T02:13:32.354Z,100254.40
2023-12-30T02:16:00.470Z,100257.80
2023-12-30T02:18:28.856Z,100255.80
2023-12-30T02:20:56.982Z,100257.40
2023-12-30T02:23:25.030Z,100254.80
2023-12-30T02:25:53.128Z,100261.80
2023-12-30T02:28:21.348Z,100261.40
2023-12-30T02:30:49.527Z,100264.40
2023-12-30T02:33:17.651Z,100262.20
2023-12-30T02:35:45.765Z,100257.40
2023-12-30T02:38:13.709Z,100252.00
2023-12-30T02:40:41.761Z,100248.40
2023-12-30T02:43:09.911Z,100246.20
2023-12-30T02:45:38.199Z,100250.60
2023-12-30T02:48:06.994Z,100245.40
2023-12-30T02:50:35.107Z,100249.60
2023-12-30T02:53:03.412Z,100247.20
2023-12-30T02:55:31.822Z,100247.80
2023-12-30T02:58:00.179Z,100246.60
2023-12-30T03:00:29.032Z,100246.20
2023-12-30T03:02:57.077Z,100250.80
2023-12-30T03:05:25.169Z,100249.60
2023-12-30T03:07:53.187Z,100255.60
2023-12-30T03:10:21.460Z,100260.40
2023-12-30T03:12:49.657Z,100259.60
2023-12-30T03:15:17.785Z,100257.80
2023-12-30T03:17:46.015Z,100258.00
2023-12-30T03:20:14.350Z,100262.40
2023-12-30T03:22:42.476Z,100268.20
2023-12-30T03:25:10.512Z,100263.40
2023-12-30T03:27:38.757Z,100257.20
2023-12-30T03:30:07.864Z,100258.80
2023-12-30T03:32:36.218Z,100262.80
2023-12-30T03:35:04.842Z,100259.40
2023-12-30T03:37:32.879Z,100263.40
2023-12-30T03:40:00.944Z,100264.40
2023-12-30T03:42:28.975Z,100265.40
2023-12-30T03:44:58.199Z,100269.40
2023-12-30T03:47:26.436Z,100270.00
2023-12-30T03:49:54.531Z,100271.60
2023-12-30T03:52:22.802Z,100267.60
2023-12-30T03:54:53.491Z,100263.20
2023-12-30T03:57:21.630Z,100261.40
2023-12-30T03:59:49.675Z,100263.20
2023-12-30T04:02:22.242Z,100267.80
2023-12-30T04:04:51.290Z,100263.00
2023-12-30T04:07:19.369Z,100264.80
2023-12-30T04:09:47.732Z,100264.20
2023-12-30T04:12:15.871Z,100256.40
2023-12-30T04:14:45.373Z,100257.40
2023-12-30T04:17:13.669Z,100252.60
2023-12-30T04:19:41.934Z,100258.20
2023-12-30T04:22:09.975Z,100259.20
2023-12-30T04:24:38.249Z,100256.80
2023-12-30T04:27:06.371Z,100255.60
2023-12-30T04:29:34.392Z,100261.40
2023-12-30T04:32:02.359Z,100259.00
2023-12-30T04:34:30.546Z,100260.60
2023-12-30T04:36:58.828Z,100260.80
2023-12-30T04:39:26.853Z,100261.40
2023-12-30T04:41:58.516Z,100263.00
2023-12-30T04:44:26.713Z,100261.00
2023-12-30T04:46:54.755Z,100253.80
2023-12-30T04:49:23.108Z,100268.80
2023-12-30T04:51:51.259Z,100275.80
2023-12-30T04:54:19.360Z,100276.80
2023-12-30T04:56:47.563Z,100279.40
2023-12-30T04:59:15.603Z,100275.20
2023-12-30T05:01:43.824Z,100277.00
2023-12-30T05:04:12.457Z,100274.40
2023-12-30T05:06:40.560Z,100277.60
2023-12-30T05:09:10.075Z,100278.80
2023-12-30T05:11:39.093Z,100287.00
2023-12-30T05:14:07.865Z,100291.20
2023-12-30T05:16:43.653Z,100291.80
2023-12-30T05:19:12.509Z,100286.20
2023-12-30T05:21:42.398Z,100286.20
2023-12-30T05:24:11.414Z,100286.80
2023-12-30T05:26:39.591Z,100284.20
2023-12-30T05:29:07.686Z,100295.00
2023-12-30T05:31:35.763Z,100298.00
2023-12-30T05:34:05.477Z,100291.00
2023-12-30T05:36:33.783Z,100292.00
2023-12-30T05:39:01.863Z,100293.60
2023-12-30T05:41:30.018Z,100293.00
2023-12-30T05:43:57.966Z,100294.20
2023-12-30T05:46:26.661Z,100299.00
2023-12-30T05:48:54.938Z,100301.40
2023-12-30T05:51:24.952Z,100301.20
2023-12-30T05:53:53.181Z,100303.00
2023-12-30T05:56:23.372Z,100306.80
2023-12-30T05:58:56.419Z,100304.20
2023-12-30T06:01:24.651Z,100311.00
2023-12-30T06:03:53.316Z,100308.40
2023-12-30T06:06:21.696Z,100306.80
2023-12-30T06:08:50.296Z,100309.20
2023-12-30T06:11:18.639Z,100305.00
2023-12-30T06:13:47.436Z,100307.20
2023-12-30T06:16:15.499Z,100305.40
2023-12-30T06:18:43.675Z,100310.00
2023-12-30T06:21:12.101Z,100316.00
2023-12-30T06:23:40.244Z,100313.20
2023-12-30T06:26:08.266Z,100322.20
2023-12-30T06:28:37.357Z,100323.40
2023-12-30T06:31:05.619Z,100321.40
2023-12-30T06:33:33.910Z,100329.00
2023-12-30T06:36:02.167Z,100330.40
2023-12-30T06:38:30.149Z,100334.60
2023-12-30T06:40:58.154Z,100335.80
2023-12-30T06:43:26.396Z,100347.00
2023-12-30T06:45:55.328Z,100353.60
2023-12-30T06:48:23.460Z,100354.20
2023-12-30T06:50:52.260Z,100358.40
2023-12-30T06:53:20.213Z,100358.60
2023-12-30T06:55:48.892Z,100364.40
2023-12-30T06:58:17.150Z,100364.20
2023-12-30T07:00:45.160Z,100362.60
2023-12-30T07:03:14.981Z,100359.00
2023-12-30T07:05:43.256Z,100364.80
2023-12-30T07:08:11.331Z,100372.80
2023-12-30T07:10:40.209Z,100371.00
2023-12-30T07:13:08.504Z,100366.40
2023-12-30T07:15:36.467Z,100368.20
2023-12-30T07:18:05.358Z,100364.20
2023-12-30T07:20:33.767Z,100369.60
2023-12-30T07:23:03.579Z,100366.40
2023-12-30T07:25:31.935Z,100369.40
2023-12-30T07:28:00.068Z,100366.80
2023-12-30T07:30:28.211Z,100374.20
2023-12-30T07:32:56.361Z,100374.00
2023-12-30T07:35:25.518Z,100375.20
2023-12-30T07:37:53.798Z,100374.00
2023-12-30T07:40:22.670Z,100379.00
2023-12-30T07:42:51.157Z,100379.00
2023-12-30T07:45:19.114Z,100376.20
2023-12-30T07:47:47.607Z,100379.60
2023-12-30T07:50:16.662Z,100384.20
2023-12-30T07:52:44.710Z,100387.00
2023-12-30T07:55:12.831Z,100387.00
2023-12-30T07:57:41.176Z,100386.00
2023-12-30T08:00:09.844Z,100385.80
2023-12-30T08:02:42.264Z,100388.80
2023-12-30T08:05:10.730Z,100393.20
2023-12-30T08:07:38.814Z,100392.40
2023-12-30T08:10:07.540Z,100403.40
2023-12-30T08:12:37.891Z,100400.40
2023-12-30T08:15:07.264Z,100404.20
2023-12-30T08:17:35.388Z,100407.80
2023-12-30T08:20:04.933Z,100404.80
2023-12-30T08:22:33.744Z,100408.60
2023-12-30T08:25:02.147Z,100400.20
2023-12-30T08:27:30.211Z,100407.00
2023-12-30T08:29:58.277Z,100407.60
2023-12-30T08:32:26.434Z,100412.60
2023-12-30T08:34:55.700Z,100413.20
2023-12-30T08:37:24.937Z,100414.60
2023-12-30T08:39:53.090Z,100413.20
2023-12-30T08:42:23.180Z,100410.40
2023-12-30T08:44:51.138Z,100413.00
2023-12-30T08:47:19.355Z,100416.00
2023-12-30T08:49:47.728Z,100414.80
2023-12-30T08:52:15.973Z,100412.80
2023-12-30T08:54:44.004Z,100408.60
2023-12-30T08:57:12.029Z,100411.20
2023-12-30T08:59:41.338Z,100406.60
2023-12-30T09:02:09.385Z,100405.60
2023-12-30T09:04:37.767Z,100404.60
2023-12-30T09:07:05.810Z,100405.20
2023-12-30T09:09:33.828Z,100400.60
2023-12-30T09:12:01.954Z,100394.20
2023-12-30T09:14:30.046Z,100392.20
2023-12-30T09:16:58.373Z,100393.40
2023-12-30T09:19:26.599Z,100388.40
2023-12-30T09:21:54.810Z,100388.40
2023-12-30T09:24:22.980Z,100387.20
2023-12-30T09:26:50.991Z,100387.40
2023-12-30T09:29:19.289Z,100390.60
2023-12-30T09:31:47.518Z,100384.80
2023-12-30T09:34:20.897Z,100382.80
2023-12-30T09:36:54.801Z,100370.80
2023-12-30T09:39:22.865Z,100375.60
2023-12-30T09:41:51.247Z,100374.40
2023-12-30T09:44:19.770Z,100370.20
2023-12-30T09:46:48.791Z,100360.60
2023-12-30T09:49:17.474Z,100361.60
2023-12-30T09:51:45.523Z,100362.20
2023-12-30T09:54:14.185Z,100356.00
2023-12-30T09:56:45.169Z,100356.60
2023-12-30T09:59:13.307Z,100348.40
2023-12-30T10:01:42.086Z,100345.20
2023-12-30T10:04:10.508Z,100349.80
2023-12-30T10:06:39.615Z,100345.40
2023-12-30T10:09:07.978Z,100345.60
2023-12-30T10:11:36.886Z,100347.20
2023-12-30T10:14:05.494Z,100344.80
2023-12-30T10:16:33.689Z,100341.40
2023-12-30T10:19:02.428Z,100343.60
2023-12-30T10:21:31.029Z,100339.60
2023-12-30T10:24:01.755Z,100336.60
2023-12-30T10:26:29.859Z,100339.00
2023-12-30T10:28:58.465Z,100336.20
2023-12-30T10:31:26.838Z,100329.60
2023-12-30T10:33:55.584Z,100326.40
2023-12-30T10:36:23.902Z,100318.20
2023-12-30T10:38:54.201Z,100323.20
2023-12-30T10:41:22.379Z,100315.20
2023-12-30T10:43:50.449Z,100319.20
2023-12-30T10:46:20.634Z,100309.80
2023-12-30T10:48:52.599Z,100311.00
2023-12-30T10:51:31.891Z,100307.20
2023-12-30T10:54:08.101Z,100304.40
2023-12-30T10:56:41.230Z,100298.60
2023-12-30T10:59:09.937Z,100299.80
2023-12-30T11:01:38.061Z,100294.00
2023-12-30T11:04:13.232Z,100291.20
2023-12-30T11:06:52.939Z,100287.80
2023-12-30T11:09:31.420Z,100284.00
2023-12-30T11:12:03.656Z,100282.80
2023-12-30T11:14:32.721Z,100278.00
2023-12-30T11:17:00.806Z,100278.40
2023-12-30T11:19:33.421Z,100275.20
2023-12-30T11:22:06.152Z,100274.00
2023-12-30T11:24:35.518Z,100274.20
2023-12-30T11:27:03.933Z,100273.80
2023-12-30T11:29:32.022Z,100273.60
2023-12-30T11:32:00.424Z,100271.80
2023-12-30T11:34:29.136Z,100271.60
2023-12-30T11:36:59.949Z,100274.80
2023-12-30T11:39:29.798Z,100271.00
2023-12-30T11:41:59.720Z,100271.40
2023-12-30T11:44:29.485Z,100264.60
2023-12-30T11:46:58.883Z,100269.60
2023-12-30T11:49:27.807Z,100271.20
2023-12-30T11:52:04.385Z,100271.80
2023-12-30T11:54:34.334Z,100270.60
2023-12-30T11:57:02.740Z,100268.20
2023-12-30T11:59:30.845Z,100268.20
2023-12-30T12:02:15.823Z,100261.60
2023-12-30T12:04:44.564Z,100259.80
2023-12-30T12:07:13.725Z,100256.00
2023-12-30T12:09:44.196Z,100258.40
2023-12-30T12:12:15.441Z,100256.60
2023-12-30T12:14:51.657Z,100247.80
2023-12-30T12:17:21.283Z,100246.20
2023-12-30T12:19:49.693Z,100242.80
2023-12-30T12:22:17.858Z,100236.00
2023-12-30T12:24:46.040Z,100234.60
2023-12-30T12:27:23.238Z,100233.20
2023-12-30T12:29:53.068Z,100223.40
2023-12-30T12:32:22.567Z,100225.80
2023-12-30T12:34:51.521Z,100223.20
2023-12-30T12:37:20.641Z,100220.80
2023-12-30T12:39:48.637Z,100225.80
2023-12-30T12:42:26.973Z,100224.40
2023-12-30T12:44:59.296Z,100223.40
2023-12-30T12:47:27.646Z,100223.20
2023-12-30T12:49:56.031Z,100220.40
2023-12-30T12:52:24.303Z,100219.40
2023-12-30T12:54:52.608Z,100216.20
2023-12-30T12:57:20.834Z,100212.20
2023-12-30T12:59:49.030Z,100213.60
2023-12-30T13:02:17.724Z,100208.20
2023-12-30T13:04:45.916Z,100206.20
2023-12-30T13:07:14.504Z,100207.20
2023-12-30T13:09:57.964Z,100207.00
2023-12-30T13:12:26.402Z,100209.80
2023-12-30T13:14:57.484Z,100209.40
2023-12-30T13:17:25.838Z,100213.00
2023-12-30T13:19:53.956Z,100205.80
2023-12-30T13:22:23.690Z,100210.60
2023-12-30T13:24:52.727Z,100209.40
2023-12-30T13:27:21.543Z,100204.80
2023-12-30T13:29:50.032Z,100210.20
2023-12-30T13:32:17.986Z,100208.20
2023-12-30T13:34:47.662Z,100210.60
2023-12-30T13:37:15.866Z,100208.20
2023-12-30T13:39:43.963Z,100211.20
2023-12-30T13:42:15.498Z,100215.00
2023-12-30T13:44:45.279Z,100210.60
2023-12-30T13:47:36.417Z,100211.20
2023-12-30T13:50:21.174Z,100214.00
2023-12-30T13:52:51.963Z,100215.40
2023-12-30T13:55:21.722Z,100211.00
2023-12-30T13:57:54.125Z,100208.00
2023-12-30T14:00:22.798Z,100211.20
2023-12-30T14:02:54.214Z,100215.20
2023-12-30T14:05:31.873Z,100220.80
2023-12-30T14:08:17.717Z,100221.40
2023-12-30T14:10:49.728Z,100227.20
2023-12-30T14:13:20.503Z,100230.80
2023-12-30T14:15:49.235Z,100233.80
2023-12-30T14:18:18.392Z,100229.40
2023-12-30T14:20:47.991Z,100236.40
2023-12-30T14:23:16.014Z,100233.00
2023-12-30T14:25:45.841Z,100231.60
2023-12-30T14:28:14.701Z,100233.40
2023-12-30T14:30:44.264Z,100230.60
2023-12-30T14:33:12.806Z,100238.20
2023-12-30T14:35:42.069Z,100238.00
2023-12-30T14:38:11.324Z,100245.40
2023-12-30T14:40:39.431Z,100246.00
2023-12-30T14:43:07.879Z,100248.00
2023-12-30T14:45:36.088Z,100245.00
2023-12-30T14:48:05.397Z,100244.40
2023-12-30T14:50:33.628Z,100246.00
2023-12-30T14:53:01.905Z,100250.20
2023-12-30T14:55:30.380Z,100248.20
2023-12-30T14:57:58.548Z,100251.00
2023-12-30T15:00:26.571Z,100255.20
2023-12-30T15:02:56.081Z,100254.20
2023-12-30T15:05:24.382Z,100252.00
2023-12-30T15:07:55.881Z,100251.20
2023-12-30T15:10:26.600Z,100254.60
2023-12-30T15:12:54.739Z,100252.20
2023-12-30T15:15:23.830Z,100256.60
2023-12-30T15:17:52.388Z,100256.80
2023-12-30T15:20:21.048Z,100250.40
2023-12-30T15:22:49.342Z,100252.20
2023-12-30T15:25:20.065Z,100254.00
2023-12-30T15:27:53.754Z,100257.60
2023-12-30T15:30:25.742Z,100253.20
2023-12-30T15:32:56.081Z,100255.40
2023-12-30T15:35:24.550Z,100261.00
2023-12-30T15:37:53.360Z,100258.80
2023-12-30T15:40:21.543Z,100259.40
2023-12-30T15:42:49.963Z,100256.20
2023-12-30T15:45:17.926Z,100258.00
2023-12-30T15:47:48.651Z,100259.00
2023-12-30T15:50:16.879Z,100263.40
2023-12-30T15:52:45.425Z,100263.80
2023-12-30T15:55:14.813Z,100267.80
2023-12-30T15:57:43.360Z,100270.40
2023-12-30T16:00:12.434Z,100271.20
2023-12-30T16:02:40.904Z,100268.20
2023-12-30T16:05:09.074Z,100265.40
2023-12-30T16:07:37.510Z,100270.20
2023-12-30T16:10:06.572Z,100266.00
2023-12-30T16:12:35.082Z,100269.20
2023-12-30T16:15:03.375Z,100265.80
2023-12-30T16:17:31.753Z,100268.00
2023-12-30T16:20:01.432Z,100273.60
2023-12-30T16:22:29.771Z,100276.20
2023-12-30T16:24:58.347Z,100274.60
2023-12-30T16:27:26.619Z,100277.80
2023-12-30T16:29:54.908Z,100280.60
2023-12-30T16:32:22.975Z,100284.40
2023-12-30T16:34:51.052Z,100289.60
2023-12-30T16:37:23.791Z,100289.20
2023-12-30T16:39:52.806Z,100292.60
2023-12-30T16:42:22.270Z,100294.00
2023-12-30T16:44:50.485Z,100299.80
2023-12-30T16:47:18.621Z,100298.40
2023-12-30T16:49:46.737Z,100301.40
2023-12-30T16:52:14.910Z,100299.00
2023-12-30T16:54:43.465Z,100302.40
2023-12-30T16:57:11.713Z,100301.80
2023-12-30T16:59:40.200Z,100300.80
2023-12-30T17:02:08.344Z,100306.00
2023-12-30T17:04:36.775Z,100305.20
2023-12-30T17:07:05.071Z,100305.60
2023-12-30T17:09:33.378Z,100305.80
2023-12-30T17:12:01.598Z,100314.20
2023-12-30T17:14:29.660Z,100317.20
2023-12-30T17:16:57.853Z,100318.40
2023-12-30T17:19:25.906Z,100318.20
2023-12-30T17:21:53.988Z,100318.80
2023-12-30T17:24:22.168Z,100320.40
2023-12-30T17:26:50.277Z,100317.00
2023-12-30T17:29:18.322Z,100314.00
2023-12-30T17:31:46.445Z,100315.20
2023-12-30T17:34:14.623Z,100316.00
2023-12-30T17:36:42.635Z,100322.80
2023-12-30T17:39:10.987Z,100331.20
2023-12-30T17:41:38.965Z,100328.20
2023-12-30T17:44:07.625Z,100336.60
2023-12-30T17:46:35.789Z,100338.60
2023-12-30T17:49:03.936Z,100338.80
2023-12-30T17:51:32.033Z,100333.60
2023-12-30T17:54:00.134Z,100330.60
2023-12-30T17:56:30.194Z,100336.60
2023-12-30T17:58:58.188Z,100341.00
2023-12-30T18:01:26.920Z,100340.00
2023-12-30T18:03:55.131Z,100345.80
2023-12-30T18:06:23.613Z,100346.40
2023-12-30T18:08:51.776Z,100349.60
2023-12-30T18:11:20.528Z,100350.00
2023-12-30T18:13:48.741Z,100349.60
2023-12-30T18:16:16.946Z,100349.60
2023-12-30T18:18:45.122Z,100347.60
2023-12-30T18:21:13.650Z,100350.80
2023-12-30T18:23:41.769Z,100351.40
2023-12-30T18:26:13.770Z,100347.20
2023-12-30T18:28:41.988Z,100346.60
2023-12-30T18:31:10.842Z,100346.60
2023-12-30T18:33:39.172Z,100344.00
2023-12-30T18:36:07.790Z,100339.20
2023-12-30T18:38:36.368Z,100342.20
2023-12-30T18:41:04.894Z,100343.80
2023-12-30T18:43:34.630Z,100348.60
2023-12-30T18:46:02.967Z,100344.00
2023-12-30T18:48:31.365Z,100338.20
2023-12-30T18:50:59.601Z,100341.00
2023-12-30T18:53:27.680Z,100345.20
2023-12-30T18:55:55.882Z,100345.40
2023-12-30T18:58:24.996Z,100345.20
2023-12-30T19:00:53.088Z,100350.60
2023-12-30T19:03:21.273Z,100357.00
2023-12-30T19:05:49.519Z,100352.20
2023-12-30T19:08:17.961Z,100353.20
2023-12-30T19:10:46.108Z,100358.00
2023-12-30T19:13:15.842Z,100356.60
2023-12-30T19:15:43.912Z,100349.80
2023-12-30T19:18:12.649Z,100354.80
2023-12-30T19:20:41.072Z,100356.60
2023-12-30T19:23:09.325Z,100356.40
2023-12-30T19:25:37.379Z,100358.20
2023-12-30T19:28:05.980Z,100346.80
2023-12-30T19:30:34.241Z,100349.20
2023-12-30T19:33:05.693Z,100352.20
2023-12-30T19:35:34.894Z,100353.60
2023-12-30T19:38:04.112Z,100352.00
2023-12-30T19:40:32.247Z,100351.00
2023-12-30T19:43:00.388Z,100354.40
2023-12-30T19:45:28.673Z,100357.40
2023-12-30T19:47:56.838Z,100353.20
2023-12-30T19:50:24.952Z,100358.40
2023-12-30T19:52:53.089Z,100353.60
2023-12-30T19:55:21.448Z,100352.40
2023-12-30T19:57:49.778Z,100356.60
2023-12-30T20:00:18.249Z,100356.60
2023-12-30T20:02:47.895Z,100359.00
2023-12-30T20:05:18.900Z,100355.40
2023-12-30T20:07:47.363Z,100354.20
2023-12-30T20:10:15.659Z,100355.40
2023-12-30T20:12:43.909Z,100353.00
2023-12-30T20:15:12.128Z,100351.20
2023-12-30T20:17:40.447Z,100357.00
2023-12-30T20:20:09.744Z,100364.00
2023-12-30T20:22:37.990Z,100362.40
2023-12-30T20:25:07.246Z,100360.20
2023-12-30T20:27:35.470Z,100355.80
2023-12-30T20:30:06.007Z,100357.60
2023-12-30T20:32:37.997Z,100354.00
2023-12-30T20:35:06.520Z,100352.00
2023-12-30T20:37:34.718Z,100351.40
2023-12-30T20:40:04.016Z,100351.00
2023-12-30T20:42:32.043Z,100346.20
2023-12-30T20:45:00.180Z,100352.20
2023-12-30T20:47:28.378Z,100351.20
2023-12-30T20:49:56.649Z,100352.20
2023-12-30T20:52:24.889Z,100352.00
2023-12-30T20:54:53.014Z,100352.20
2023-12-30T20:57:21.098Z,100357.20
2023-12-30T20:59:49.079Z,100358.40
2023-12-30T21:02:17.194Z,100359.40
2023-12-30T21:04:45.309Z,100360.60
2023-12-30T21:07:13.769Z,100362.40
2023-12-30T21:09:41.893Z,100365.00
2023-12-30T21:12:10.107Z,100368.80
2023-12-30T21:14:38.210Z,100365.60
2023-12-30T21:17:06.320Z,100363.00
2023-12-30T21:19:35.739Z,100368.60
2023-12-30T21:22:06.354Z,100375.20
2023-12-30T21:24:34.748Z,100383.20
2023-12-30T21:27:03.705Z,100376.60
2023-12-30T21:29:31.889Z,100376.00
2023-12-30T21:31:59.961Z,100384.00
2023-12-30T21:34:27.985Z,100380.60
2023-12-30T21:36:56.069Z,100378.60
2023-12-30T21:39:24.213Z,100379.20
2023-12-30T21:41:52.319Z,100382.40
2023-12-30T21:44:21.332Z,100382.60
2023-12-30T21:46:49.679Z,100382.00
2023-12-30T21:49:19.912Z,100381.80
2023-12-30T21:51:48.342Z,100385.80
2023-12-30T21:54:16.648Z,100390.00
2023-12-30T21:56:44.860Z,100388.60
2023-12-30T21:59:12.944Z,100390.20
2023-12-30T22:01:41.196Z,100389.60
2023-12-30T22:04:09.520Z,100393.00
2023-12-30T22:06:37.691Z,100390.20
2023-12-30T22:09:06.417Z,100383.80
2023-12-30T22:11:34.776Z,100393.80
2023-12-30T22:14:02.816Z,100392.60
2023-12-30T22:16:31.021Z,100396.20
2023-12-30T22:18:59.168Z,100387.60
2023-12-30T22:21:28.420Z,100392.20
2023-12-30T22:23:56.479Z,100388.80
2023-12-30T22:26:24.609Z,100386.40
2023-12-30T22:28:52.911Z,100394.20
2023-12-30T22:31:21.120Z,100397.80
2023-12-30T22:33:50.227Z,100392.00
2023-12-30T22:36:32.127Z,100395.20
2023-12-30T22:39:00.181Z,100389.20
2023-12-30T22:41:28.307Z,100384.20
2023-12-30T22:43:56.374Z,100384.20
2023-12-30T22:46:24.595Z,100376.60
2023-12-30T22:48:52.670Z,100378.20
2023-12-30T22:51:20.709Z,100372.20
2023-12-30T22:53:50.160Z,100376.40
2023-12-30T22:56:18.167Z,100377.60
2023-12-30T22:58:46.233Z,100376.40
2023-12-30T23:01:14.348Z,100369.40
2023-12-30T23:03:42.449Z,100367.20
2023-12-30T23:06:10.729Z,100370.80
2023-12-30T23:08:38.753Z,100373.80
2023-12-30T23:11:08.048Z,100368.80
2023-12-30T23:13:36.078Z,100373.80
2023-12-30T23:16:04.397Z,100375.80
2023-12-30T23:18:32.532Z,100368.20
2023-12-30T23:21:00.513Z,100373.00
2023-12-30T23:23:28.620Z,100368.40
2023-12-30T23:25:56.895Z,100364.80
2023-12-30T23:28:24.945Z,100362.20
2023-12-30T23:30:53.134Z,100365.00
2023-12-30T23:33:21.217Z,100364.60
2023-12-30T23:35:49.636Z,100368.00
2023-12-30T23:38:17.753Z,100365.40
2023-12-30T23:40:45.834Z,100367.20
2023-12-30T23:43:14.020Z,100371.00
2023-12-30T23:45:42.097Z,100368.60
2023-12-30T23:48:10.140Z,100368.20
2023-12-30T23:50:38.523Z,100371.80
2023-12-30T23:53:06.873Z,100371.60
2023-12-30T23:55:35.381Z,100374.80
2023-12-30T23:58:03.931Z,100377.60
